Time;durP1;ratioP1;P1;durP2;ratioP2;P2;SDS_P1;SDS_P2;PMS_P1;PMS_P2;Temp;Humidity;BMP_temperature;BMP_pressure;BME280_temperature;BME280_humidity;BME280_pressure;Samples;Min_cycle;Max_cycle;Signal;HPM_P1;HPM_P2
2022/11/08 00:02:51;0.00;0.00;0.62;0.00;0.00;0.62;1.60;1.00;;;26.20;26.50;;;;;;2240539;61;20393;-66
2022/11/08 00:14:48;0.00;0.00;0.62;0.00;0.00;0.62;1.60;0.90;;;26.20;26.50;;;;;;2240044;61;20409;-63
2022/11/08 00:17:34;0.00;0.00;0.62;0.00;0.00;0.62;1.57;0.70;;;26.20;26.50;;;;;;2240545;61;20366;-65
2022/11/08 00:20:19;0.00;0.00;0.62;0.00;0.00;0.62;1.37;0.70;;;26.20;26.50;;;;;;2238997;61;20926;-64
2022/11/08 00:23:06;0.00;0.00;0.62;0.00;0.00;0.62;1.83;0.97;;;26.20;26.50;;;;;;2240019;61;20401;-65
2022/11/08 00:25:53;0.00;0.00;0.62;0.00;0.00;0.62;1.40;0.77;;;26.20;26.50;;;;;;2240464;61;20445;-64
2022/11/08 00:28:38;0.00;0.00;0.62;0.00;0.00;0.62;1.50;0.90;;;26.20;26.50;;;;;;2238791;61;20361;-65
2022/11/08 00:31:22;0.00;0.00;0.62;0.00;0.00;0.62;1.50;0.90;;;26.20;26.50;;;;;;2240371;61;20444;-65
2022/11/08 00:34:07;0.00;0.00;0.62;0.00;0.00;0.62;1.70;0.90;;;26.20;26.50;;;;;;2239115;61;20397;-62
2022/11/08 00:36:53;0.00;0.00;0.62;0.00;0.00;0.62;1.33;0.80;;;26.20;26.50;;;;;;2240079;61;20369;-63
2022/11/08 00:39:37;0.00;0.00;0.62;0.00;0.00;0.62;1.30;0.70;;;26.20;27.00;;;;;;2239927;61;20373;-64
2022/11/08 00:42:22;0.00;0.00;0.62;0.00;0.00;0.62;1.40;0.80;;;26.20;26.50;;;;;;2239202;61;20409;-65
2022/11/08 00:45:07;0.00;0.00;0.62;0.00;0.00;0.62;1.40;0.70;;;26.20;26.50;;;;;;2240166;61;20413;-63
2022/11/08 00:47:52;0.00;0.00;0.62;0.00;0.00;0.62;1.43;0.80;;;26.20;26.50;;;;;;2240540;61;20369;-66
2022/11/08 00:50:37;0.00;0.00;0.62;0.00;0.00;0.62;1.80;1.00;;;26.20;26.50;;;;;;2239103;61;20408;-66
2022/11/08 00:53:23;0.00;0.00;0.62;0.00;0.00;0.62;1.50;0.70;;;26.30;26.50;;;;;;2240331;61;20385;-62
2022/11/08 00:56:12;0.00;0.00;0.62;0.00;0.00;0.62;1.40;0.80;;;26.30;27.00;;;;;;2240044;61;20462;-66
2022/11/08 00:58:57;0.00;0.00;0.62;0.00;0.00;0.62;1.30;0.77;;;26.30;26.50;;;;;;2239965;61;20397;-64
2022/11/08 01:01:42;0.00;0.00;0.62;0.00;0.00;0.62;1.90;0.83;;;26.20;26.50;;;;;;2240056;61;20525;-64
2022/11/08 01:04:27;0.00;0.00;0.62;0.00;0.00;0.62;1.70;0.80;;;26.30;26.50;;;;;;2239472;61;20425;-64
2022/11/08 01:07:11;0.00;0.00;0.62;0.00;0.00;0.62;1.53;0.77;;;26.20;26.40;;;;;;2240254;61;20933;-62
2022/11/08 01:09:57;0.00;0.00;0.62;0.00;0.00;0.62;2.30;1.30;;;26.20;26.40;;;;;;2240394;61;20433;-63
2022/11/08 01:12:42;0.00;0.00;0.62;0.00;0.00;0.62;1.47;0.80;;;26.20;26.40;;;;;;2239126;61;20393;-64
2022/11/08 01:15:27;0.00;0.00;0.62;0.00;0.00;0.62;1.43;0.73;;;26.30;26.50;;;;;;2240310;61;20421;-64
2022/11/08 01:18:14;0.00;0.00;0.62;0.00;0.00;0.62;1.53;0.90;;;26.20;26.40;;;;;;2239928;61;20465;-67
2022/11/08 01:21:01;0.00;0.00;0.62;0.00;0.00;0.62;1.73;0.80;;;26.20;26.40;;;;;;2239770;61;20377;-65
2022/11/08 01:23:46;0.00;0.00;0.62;0.00;0.00;0.62;1.30;0.70;;;26.20;26.40;;;;;;2281957;58;20366;-62
2022/11/08 01:26:32;0.00;0.00;0.62;0.00;0.00;0.62;1.83;1.10;;;26.20;26.40;;;;;;2240246;61;20774;-65
2022/11/08 01:29:17;0.00;0.00;0.62;0.00;0.00;0.62;1.50;0.80;;;26.20;26.40;;;;;;2240953;61;20369;-65
2022/11/08 01:32:01;0.00;0.00;0.62;0.00;0.00;0.62;1.30;0.70;;;26.20;26.40;;;;;;2240869;61;20478;-66
2022/11/08 01:34:46;0.00;0.00;0.62;0.00;0.00;0.62;1.50;0.80;;;26.20;26.40;;;;;;2239320;61;20445;-70
2022/11/08 01:37:30;0.00;0.00;0.62;0.00;0.00;0.62;1.40;0.80;;;26.20;26.40;;;;;;2241072;61;20398;-69
2022/11/08 01:40:15;0.00;0.00;0.62;0.00;0.00;0.62;1.90;0.70;;;26.20;26.50;;;;;;2240052;61;20425;-68
2022/11/08 01:43:39;0.00;0.00;0.62;0.00;0.00;0.62;1.70;0.80;;;26.20;26.50;;;;;;2240313;61;20397;-68
2022/11/08 01:46:46;0.00;0.00;0.62;0.00;0.00;0.62;1.20;0.70;;;26.20;26.50;;;;;;2239563;61;20385;-68
2022/11/08 01:49:38;0.00;0.00;0.62;0.00;0.00;0.62;1.50;0.80;;;26.20;26.50;;;;;;2241986;61;20497;-68
2022/11/08 01:52:32;0.00;0.00;0.62;0.00;0.00;0.62;1.60;0.80;;;26.20;26.50;;;;;;2240703;61;20433;-68
2022/11/08 01:55:20;0.00;0.00;0.62;0.00;0.00;0.62;1.40;0.80;;;26.20;26.50;;;;;;2240458;61;20925;-68
2022/11/08 01:58:12;0.00;0.00;0.62;0.00;0.00;0.62;1.40;0.80;;;26.20;26.50;;;;;;2240397;61;20409;-68
2022/11/08 02:01:00;0.00;0.00;0.62;0.00;0.00;0.62;1.57;0.73;;;26.20;26.50;;;;;;2240248;61;20369;-68
2022/11/08 02:03:46;0.00;0.00;0.62;0.00;0.00;0.62;2.53;0.90;;;26.20;26.50;;;;;;2239587;61;20435;-68
2022/11/08 02:06:34;0.00;0.00;0.62;0.00;0.00;0.62;1.70;1.00;;;26.10;26.50;;;;;;2240317;61;20382;-68
2022/11/08 02:09:18;0.00;0.00;0.62;0.00;0.00;0.62;2.40;1.20;;;26.10;26.40;;;;;;2240908;61;20365;-68
2022/11/08 02:12:05;0.00;0.00;0.62;0.00;0.00;0.62;1.83;1.00;;;26.10;26.40;;;;;;2239638;61;20452;-68
2022/11/08 02:14:51;0.00;0.00;0.62;0.00;0.00;0.62;1.50;0.90;;;26.10;26.40;;;;;;2240178;61;20400;-68
2022/11/08 02:17:36;0.00;0.00;0.62;0.00;0.00;0.62;1.93;1.33;;;26.00;26.40;;;;;;2239828;61;20373;-68
2022/11/08 02:20:21;0.00;0.00;0.62;0.00;0.00;0.62;2.00;1.07;;;26.10;26.50;;;;;;2240193;61;20349;-68
2022/11/08 02:23:14;0.00;0.00;0.62;0.00;0.00;0.62;2.17;1.20;;;26.00;26.40;;;;;;2240512;61;20512;-68
2022/11/08 02:26:00;0.00;0.00;0.62;0.00;0.00;0.62;1.97;1.17;;;26.00;26.40;;;;;;2642710;46;20877;-68
2022/11/08 02:28:47;0.00;0.00;0.62;0.00;0.00;0.62;2.90;1.30;;;26.00;26.40;;;;;;2240699;61;20428;-68
2022/11/08 02:31:32;0.00;0.00;0.62;0.00;0.00;0.62;2.50;1.50;;;26.00;26.40;;;;;;2240495;61;20420;-68
2022/11/08 02:34:19;0.00;0.00;0.62;0.00;0.00;0.62;2.87;1.07;;;26.00;26.50;;;;;;2239502;61;20413;-68
2022/11/08 02:37:05;0.00;0.00;0.62;0.00;0.00;0.62;3.30;1.37;;;25.90;26.40;;;;;;2240771;61;20364;-68
2022/11/08 02:39:50;0.00;0.00;0.62;0.00;0.00;0.62;2.23;1.00;;;25.90;26.50;;;;;;2239880;61;20401;-68
2022/11/08 02:42:37;0.00;0.00;0.62;0.00;0.00;0.62;2.80;1.20;;;25.90;26.50;;;;;;2240228;61;20410;-68
2022/11/08 02:45:21;0.00;0.00;0.62;0.00;0.00;0.62;2.00;1.10;;;25.90;26.50;;;;;;2240598;61;20369;-68
2022/11/08 02:48:06;0.00;0.00;0.62;0.00;0.00;0.62;2.10;1.27;;;25.90;26.50;;;;;;2239457;61;20367;-68
2022/11/08 02:50:51;0.00;0.00;0.62;0.00;0.00;0.62;1.73;0.90;;;25.80;26.50;;;;;;2240192;61;20370;-68
2022/11/08 02:53:36;0.00;0.00;0.62;0.00;0.00;0.62;2.57;1.20;;;25.80;26.50;;;;;;2240610;61;20792;-68
2022/11/08 02:56:22;0.00;0.00;0.62;0.00;0.00;0.62;2.00;1.07;;;25.80;26.50;;;;;;2239133;61;20772;-68
2022/11/08 02:59:08;0.00;0.00;0.62;0.00;0.00;0.62;4.17;1.33;;;25.80;26.50;;;;;;2240511;61;20386;-68
2022/11/08 03:01:52;0.00;0.00;0.62;0.00;0.00;0.62;4.50;1.50;;;25.80;26.60;;;;;;2240107;61;20494;-68
2022/11/08 03:04:37;0.00;0.00;0.62;0.00;0.00;0.62;2.33;1.47;;;25.80;26.60;;;;;;2240292;61;20361;-68
2022/11/08 03:07:22;0.00;0.00;0.62;0.00;0.00;0.62;1.77;1.23;;;25.70;26.50;;;;;;2240648;61;20464;-68
2022/11/08 03:10:07;0.00;0.00;0.62;0.00;0.00;0.62;3.60;1.27;;;25.70;26.60;;;;;;2239917;61;20393;-68
2022/11/08 03:12:54;0.00;0.00;0.62;0.00;0.00;0.62;1.73;1.13;;;25.70;26.50;;;;;;2240215;61;20429;-68
2022/11/08 03:15:40;0.00;0.00;0.62;0.00;0.00;0.62;2.03;1.20;;;25.70;26.60;;;;;;2240469;61;20894;-69
2022/11/08 03:18:25;0.00;0.00;0.62;0.00;0.00;0.62;2.30;1.43;;;25.70;26.60;;;;;;2239585;61;20377;-68
2022/11/08 03:21:09;0.00;0.00;0.62;0.00;0.00;0.62;2.23;1.20;;;25.70;26.60;;;;;;2240315;61;20839;-68
2022/11/08 03:23:55;0.00;0.00;0.62;0.00;0.00;0.62;3.50;1.27;;;25.70;26.60;;;;;;2240393;61;20381;-68
2022/11/08 03:26:39;0.00;0.00;0.62;0.00;0.00;0.62;2.80;1.40;;;25.60;26.60;;;;;;2240041;61;20414;-69
2022/11/08 03:29:24;0.00;0.00;0.62;0.00;0.00;0.62;3.13;1.50;;;25.60;26.60;;;;;;2240369;61;20369;-69
2022/11/08 03:32:11;0.00;0.00;0.62;0.00;0.00;0.62;2.57;1.70;;;25.60;26.60;;;;;;2239738;61;20385;-69
2022/11/08 03:34:58;0.00;0.00;0.62;0.00;0.00;0.62;2.13;1.47;;;25.60;26.60;;;;;;2240448;61;20413;-69
2022/11/08 03:37:49;0.00;0.00;0.62;0.00;0.00;0.62;2.03;1.20;;;25.50;26.60;;;;;;2240620;61;20365;-68
2022/11/08 03:40:34;0.00;0.00;0.62;0.00;0.00;0.62;3.67;1.53;;;25.50;26.60;;;;;;2239193;61;20395;-68
2022/11/08 03:43:19;0.00;0.00;0.62;0.00;0.00;0.62;1.73;1.07;;;25.50;26.70;;;;;;2240372;61;20361;-69
2022/11/08 03:46:03;0.00;0.00;0.62;0.00;0.00;0.62;2.30;1.60;;;25.50;26.70;;;;;;2240218;61;20771;-68
2022/11/08 03:48:50;0.00;0.00;0.62;0.00;0.00;0.62;2.43;1.17;;;25.50;26.70;;;;;;2239967;61;20362;-68
2022/11/08 03:51:34;0.00;0.00;0.62;0.00;0.00;0.62;3.03;1.40;;;25.50;26.70;;;;;;2240274;61;20466;-68
2022/11/08 03:54:19;0.00;0.00;0.62;0.00;0.00;0.62;2.17;1.27;;;25.40;26.70;;;;;;2239233;61;20981;-68
2022/11/08 03:57:03;0.00;0.00;0.62;0.00;0.00;0.62;2.70;1.60;;;25.40;26.70;;;;;;2240525;61;21050;-69
2022/11/08 03:59:48;0.00;0.00;0.62;0.00;0.00;0.62;1.93;1.20;;;25.40;26.70;;;;;;2240330;61;20420;-68
2022/11/08 04:02:33;0.00;0.00;0.62;0.00;0.00;0.62;2.60;1.30;;;25.40;26.80;;;;;;2239161;61;20526;-68
2022/11/08 04:05:19;0.00;0.00;0.62;0.00;0.00;0.62;2.77;1.30;;;25.40;26.80;;;;;;2239788;61;20535;-68
2022/11/08 04:08:05;0.00;0.00;0.62;0.00;0.00;0.62;3.10;1.43;;;25.40;26.80;;;;;;2240607;61;20374;-69
2022/11/08 04:10:52;0.00;0.00;0.62;0.00;0.00;0.62;3.10;1.20;;;25.30;26.80;;;;;;2239484;61;20548;-68
2022/11/08 04:16:41;0.00;0.00;0.62;0.00;0.00;0.62;1.90;1.13;;;25.30;26.90;;;;;;2239537;61;20417;-68
2022/11/08 04:22:30;0.00;0.00;0.62;0.00;0.00;0.62;2.73;1.47;;;25.30;26.90;;;;;;2240120;61;20388;-68
2022/11/08 04:25:15;0.00;0.00;0.62;0.00;0.00;0.62;2.77;1.33;;;25.30;26.90;;;;;;2239263;61;20385;-69
2022/11/08 04:28:00;0.00;0.00;0.62;0.00;0.00;0.62;2.40;1.43;;;25.30;26.90;;;;;;2240202;61;20417;-69
2022/11/08 04:30:44;0.00;0.00;0.62;0.00;0.00;0.62;2.50;1.40;;;25.30;26.90;;;;;;2239964;61;20374;-69
2022/11/08 04:33:29;0.00;0.00;0.62;0.00;0.00;0.62;2.60;1.33;;;25.30;26.90;;;;;;2239865;61;20425;-69
2022/11/08 04:36:16;0.00;0.00;0.62;0.00;0.00;0.62;1.60;1.17;;;25.30;26.90;;;;;;2240344;61;20369;-68
2022/11/08 04:39:02;0.00;0.00;0.62;0.00;0.00;0.62;2.13;1.57;;;25.30;27.40;;;;;;2239545;61;20836;-69
2022/11/08 04:41:47;0.00;0.00;0.62;0.00;0.00;0.62;2.53;1.30;;;25.30;26.80;;;;;;2239997;61;20397;-69
2022/11/08 04:44:32;0.00;0.00;0.62;0.00;0.00;0.62;2.27;1.40;;;25.30;26.90;;;;;;2240518;61;20370;-69
2022/11/08 04:47:16;0.00;0.00;0.62;0.00;0.00;0.62;2.50;1.40;;;25.30;26.80;;;;;;2239277;61;20373;-68
2022/11/08 04:50:01;0.00;0.00;0.62;0.00;0.00;0.62;2.43;1.57;;;25.30;26.80;;;;;;2240252;61;20369;-68
2022/11/08 04:52:51;0.00;0.00;0.62;0.00;0.00;0.62;4.30;1.43;;;25.30;26.80;;;;;;2239989;61;20974;-68
2022/11/08 04:55:37;0.00;0.00;0.62;0.00;0.00;0.62;4.63;1.43;;;25.30;26.80;;;;;;2242052;61;20425;-69
2022/11/08 04:58:22;0.00;0.00;0.62;0.00;0.00;0.62;2.40;1.50;;;25.20;26.70;;;;;;2240974;61;20393;-69
2022/11/08 05:01:08;0.00;0.00;0.62;0.00;0.00;0.62;2.40;1.30;;;25.20;26.80;;;;;;2239934;61;20404;-69
2022/11/08 05:03:54;0.00;0.00;0.62;0.00;0.00;0.62;1.77;1.10;;;25.20;26.80;;;;;;2240959;61;20452;-69
2022/11/08 05:06:38;0.00;0.00;0.62;0.00;0.00;0.62;3.03;1.60;;;25.20;26.80;;;;;;2240871;61;20421;-69
2022/11/08 05:09:23;0.00;0.00;0.62;0.00;0.00;0.62;3.53;1.73;;;25.20;26.80;;;;;;2239803;61;20425;-69
2022/11/08 05:12:09;0.00;0.00;0.62;0.00;0.00;0.62;3.03;1.57;;;25.20;26.80;;;;;;2240900;61;20385;-69
2022/11/08 05:14:53;0.00;0.00;0.62;0.00;0.00;0.62;2.13;1.20;;;25.20;26.80;;;;;;2240811;61;20397;-69
2022/11/08 05:17:38;0.00;0.00;0.62;0.00;0.00;0.62;3.60;1.57;;;25.20;26.80;;;;;;2240323;61;20364;-68
2022/11/08 05:23:26;0.00;0.00;0.62;0.00;0.00;0.62;2.10;1.37;;;25.20;26.80;;;;;;2239761;61;20396;-69
2022/11/08 05:26:12;0.00;0.00;0.62;0.00;0.00;0.62;1.93;1.23;;;25.20;26.80;;;;;;2240954;61;20374;-69
2022/11/08 05:28:58;0.00;0.00;0.62;0.00;0.00;0.62;2.47;1.40;;;25.20;26.80;;;;;;2240877;61;20856;-69
2022/11/08 05:31:44;0.00;0.00;0.62;0.00;0.00;0.62;2.50;1.37;;;25.20;27.40;;;;;;2239520;61;20488;-69
2022/11/08 05:34:29;0.00;0.00;0.62;0.00;0.00;0.62;3.33;1.27;;;25.20;26.80;;;;;;2240796;61;20388;-69
2022/11/08 05:37:13;0.00;0.00;0.62;0.00;0.00;0.62;3.10;1.50;;;25.10;26.80;;;;;;2240151;61;20368;-69
2022/11/08 05:39:58;0.00;0.00;0.62;0.00;0.00;0.62;2.50;1.30;;;25.10;26.80;;;;;;2240553;61;20929;-69
2022/11/08 05:42:42;0.00;0.00;0.62;0.00;0.00;0.62;1.80;1.20;;;25.10;26.80;;;;;;2240812;61;20936;-68
2022/11/08 05:45:28;0.00;0.00;0.62;0.00;0.00;0.62;1.90;1.20;;;25.10;26.80;;;;;;2240024;61;20890;-68
2022/11/08 05:48:13;0.00;0.00;0.62;0.00;0.00;0.62;2.10;1.47;;;25.10;26.80;;;;;;2240846;61;20421;-68
2022/11/08 05:50:57;0.00;0.00;0.62;0.00;0.00;0.62;1.80;1.20;;;25.10;26.80;;;;;;2240708;61;20458;-69
2022/11/08 05:53:42;0.00;0.00;0.62;0.00;0.00;0.62;1.80;1.10;;;25.10;26.80;;;;;;2239633;61;20470;-69
2022/11/08 05:56:27;0.00;0.00;0.62;0.00;0.00;0.62;4.23;1.63;;;25.10;26.90;;;;;;2240751;61;20374;-68
2022/11/08 05:59:11;0.00;0.00;0.62;0.00;0.00;0.62;2.83;1.30;;;25.10;26.90;;;;;;2240798;61;20433;-68
2022/11/08 06:01:57;0.00;0.00;0.62;0.00;0.00;0.62;2.80;1.50;;;25.00;26.90;;;;;;2239628;61;20834;-69
2022/11/08 06:04:42;0.00;0.00;0.62;0.00;0.00;0.62;5.13;1.60;;;25.00;26.90;;;;;;2240694;61;20490;-68
2022/11/08 06:07:27;0.00;0.00;0.62;0.00;0.00;0.62;2.13;1.40;;;25.00;27.40;;;;;;2240057;61;20417;-68
2022/11/08 06:10:12;0.00;0.00;0.62;0.00;0.00;0.62;4.47;1.37;;;24.90;26.90;;;;;;2240014;61;20777;-69
2022/11/08 06:12:59;0.00;0.00;0.62;0.00;0.00;0.62;2.30;1.40;;;24.90;26.90;;;;;;2240800;61;20397;-68
2022/11/08 06:15:44;0.00;0.00;0.62;0.00;0.00;0.62;2.27;1.30;;;24.90;27.00;;;;;;2239497;61;20416;-68
2022/11/08 06:18:32;0.00;0.00;0.62;0.00;0.00;0.62;2.53;2.00;;;24.80;26.90;;;;;;2240508;61;20466;-68
2022/11/08 06:21:19;0.00;0.00;0.62;0.00;0.00;0.62;2.70;1.50;;;24.80;26.90;;;;;;2240834;61;20487;-70
2022/11/08 06:24:05;0.00;0.00;0.62;0.00;0.00;0.62;2.47;1.67;;;24.80;27.00;;;;;;2239981;61;20990;-68
2022/11/08 06:26:50;0.00;0.00;0.62;0.00;0.00;0.62;2.90;1.80;;;24.70;26.90;;;;;;2240720;61;20369;-68
2022/11/08 06:29:34;0.00;0.00;0.62;0.00;0.00;0.62;2.70;1.50;;;24.70;27.00;;;;;;2239975;61;20441;-67
2022/11/08 06:32:19;0.00;0.00;0.62;0.00;0.00;0.62;2.70;1.57;;;24.70;27.00;;;;;;2240260;61;20830;-65
2022/11/08 06:35:06;0.00;0.00;0.62;0.00;0.00;0.62;2.30;1.40;;;24.60;27.00;;;;;;2240595;61;20797;-71
2022/11/08 06:37:50;0.00;0.00;0.62;0.00;0.00;0.62;2.90;1.57;;;24.60;27.00;;;;;;2239577;61;20377;-66
2022/11/08 06:40:36;0.00;0.00;0.62;0.00;0.00;0.62;2.00;1.30;;;24.60;27.00;;;;;;2240511;61;20447;-72
2022/11/08 06:43:21;0.00;0.00;0.62;0.00;0.00;0.62;2.50;1.60;;;24.60;27.00;;;;;;2240755;61;20373;-69
2022/11/08 06:46:06;0.00;0.00;0.62;0.00;0.00;0.62;2.63;1.30;;;24.50;27.00;;;;;;2239816;61;20414;-67
2022/11/08 06:48:50;0.00;0.00;0.62;0.00;0.00;0.62;3.97;1.97;;;24.50;27.10;;;;;;2240808;61;20904;-70
2022/11/08 06:51:36;0.00;0.00;0.62;0.00;0.00;0.62;2.77;1.83;;;24.50;27.20;;;;;;2239591;61;20393;-65
2022/11/08 06:54:21;0.00;0.00;0.62;0.00;0.00;0.62;2.80;1.77;;;24.50;27.20;;;;;;2240422;61;20398;-69
2022/11/08 06:57:06;0.00;0.00;0.62;0.00;0.00;0.62;2.10;1.23;;;24.50;27.20;;;;;;2240843;61;20368;-71
2022/11/08 06:59:50;0.00;0.00;0.62;0.00;0.00;0.62;4.80;1.77;;;24.50;27.20;;;;;;2239427;61;20464;-70
2022/11/08 07:02:35;0.00;0.00;0.62;0.00;0.00;0.62;2.83;1.63;;;24.50;27.70;;;;;;2240487;61;20429;-72
2022/11/08 07:05:20;0.00;0.00;0.62;0.00;0.00;0.62;3.60;1.83;;;24.50;27.20;;;;;;2240573;61;20759;-68
2022/11/08 07:08:06;0.00;0.00;0.62;0.00;0.00;0.62;2.10;1.33;;;24.50;27.20;;;;;;2239846;61;20369;-66
2022/11/08 07:10:51;0.00;0.00;0.62;0.00;0.00;0.62;3.57;1.73;;;24.50;27.80;;;;;;2240750;61;20370;-66
2022/11/08 07:13:36;0.00;0.00;0.62;0.00;0.00;0.62;2.60;1.87;;;24.50;27.30;;;;;;2239861;61;20903;-72
2022/11/08 07:16:21;0.00;0.00;0.62;0.00;0.00;0.62;2.57;1.50;;;24.50;27.20;;;;;;2240338;61;20370;-71
2022/11/08 07:19:06;0.00;0.00;0.62;0.00;0.00;0.62;3.10;2.17;;;24.40;27.20;;;;;;2240695;61;20346;-69
2022/11/08 07:21:50;0.00;0.00;0.62;0.00;0.00;0.62;4.33;2.07;;;24.40;27.20;;;;;;2239317;61;20397;-65
2022/11/08 07:24:36;0.00;0.00;0.62;0.00;0.00;0.62;3.63;2.30;;;24.40;27.20;;;;;;2240560;61;20377;-65
2022/11/08 07:27:21;0.00;0.00;0.62;0.00;0.00;0.62;4.03;1.93;;;24.40;27.30;;;;;;2240447;61;20425;-67
2022/11/08 07:30:07;0.00;0.00;0.62;0.00;0.00;0.62;3.00;1.57;;;24.40;27.30;;;;;;2239584;61;20397;-71
2022/11/08 07:32:51;0.00;0.00;0.62;0.00;0.00;0.62;3.00;1.60;;;24.30;27.20;;;;;;2240628;61;20853;-71
2022/11/08 07:35:37;0.00;0.00;0.62;0.00;0.00;0.62;2.60;1.50;;;24.30;27.30;;;;;;2246623;58;20442;-71
2022/11/08 07:38:22;0.00;0.00;0.62;0.00;0.00;0.62;2.93;1.77;;;24.30;27.30;;;;;;2240279;61;20418;-69
2022/11/08 07:41:09;0.00;0.00;0.62;0.00;0.00;0.62;4.60;2.40;;;24.30;27.30;;;;;;2240393;61;20378;-72
2022/11/08 07:43:54;0.00;0.00;0.62;0.00;0.00;0.62;3.13;1.97;;;24.30;27.40;;;;;;2239056;61;21025;-69
2022/11/08 07:46:38;0.00;0.00;0.62;0.00;0.00;0.62;4.70;2.23;;;24.30;27.40;;;;;;2240447;61;20413;-70
2022/11/08 07:49:23;0.00;0.00;0.62;0.00;0.00;0.62;3.47;1.90;;;24.30;27.40;;;;;;2240553;61;20909;-68
2022/11/08 07:52:07;0.00;0.00;0.62;0.00;0.00;0.62;2.90;1.70;;;24.30;27.50;;;;;;2238824;61;20385;-72
2022/11/08 07:54:52;0.00;0.00;0.62;0.00;0.00;0.62;4.13;2.17;;;24.30;27.50;;;;;;2240201;61;20936;-72
2022/11/08 07:57:38;0.00;0.00;0.62;0.00;0.00;0.62;4.80;2.23;;;24.30;28.00;;;;;;2240218;61;20393;-68
2022/11/08 08:00:23;0.00;0.00;0.62;0.00;0.00;0.62;4.13;2.17;;;24.30;27.50;;;;;;2239489;61;21006;-68
2022/11/08 08:03:10;0.00;0.00;0.62;0.00;0.00;0.62;5.10;2.27;;;24.20;27.50;;;;;;2239938;61;20389;-70
2022/11/08 08:05:55;0.00;0.00;0.62;0.00;0.00;0.62;3.47;1.97;;;24.20;27.50;;;;;;2239754;61;20830;-63
2022/11/08 08:08:39;0.00;0.00;0.62;0.00;0.00;0.62;3.60;2.37;;;24.20;28.10;;;;;;2240166;61;20373;-62
2022/11/08 08:11:24;0.00;0.00;0.62;0.00;0.00;0.62;6.03;2.43;;;24.20;27.60;;;;;;2240198;61;20384;-63
2022/11/08 08:14:10;0.00;0.00;0.62;0.00;0.00;0.62;3.27;1.70;;;24.20;28.10;;;;;;2239127;61;20929;-71
2022/11/08 08:16:56;0.00;0.00;0.62;0.00;0.00;0.62;2.70;2.23;;;24.20;27.60;;;;;;2240343;61;20377;-70
2022/11/08 08:19:41;0.00;0.00;0.62;0.00;0.00;0.62;3.57;1.67;;;24.20;27.60;;;;;;2240329;61;20472;-65
2022/11/08 08:22:25;0.00;0.00;0.62;0.00;0.00;0.62;4.27;1.70;;;24.20;27.70;;;;;;2239441;61;20436;-66
2022/11/08 08:25:10;0.00;0.00;0.62;0.00;0.00;0.62;4.10;1.97;;;24.20;27.80;;;;;;2240073;61;20456;-78
2022/11/08 08:27:57;0.00;0.00;0.62;0.00;0.00;0.62;4.80;2.23;;;24.20;27.80;;;;;;2239848;61;20410;-64
2022/11/08 08:30:43;0.00;0.00;0.62;0.00;0.00;0.62;4.10;2.20;;;24.20;27.80;;;;;;2239966;61;20461;-65
2022/11/08 08:33:27;0.00;0.00;0.62;0.00;0.00;0.62;2.10;1.80;;;24.20;27.90;;;;;;2240430;61;20393;-63
2022/11/08 08:36:11;0.00;0.00;0.62;0.00;0.00;0.62;2.97;1.63;;;24.20;27.90;;;;;;2239340;61;20410;-71
2022/11/08 08:38:56;0.00;0.00;0.62;0.00;0.00;0.62;3.50;2.10;;;24.20;27.80;;;;;;2240399;61;20444;-69
2022/11/08 08:41:41;0.00;0.00;0.62;0.00;0.00;0.62;2.40;1.60;;;24.20;27.90;;;;;;2240182;61;20876;-72
2022/11/08 08:44:25;0.00;0.00;0.62;0.00;0.00;0.62;3.17;2.00;;;24.30;27.90;;;;;;2239492;61;20400;-71
2022/11/08 08:47:11;0.00;0.00;0.62;0.00;0.00;0.62;2.50;1.53;;;24.30;27.90;;;;;;2240215;61;20902;-75
2022/11/08 08:49:56;0.00;0.00;0.62;0.00;0.00;0.62;2.37;1.67;;;24.30;27.90;;;;;;2239346;61;20385;-71
2022/11/08 08:52:41;0.00;0.00;0.62;0.00;0.00;0.62;2.80;1.70;;;24.40;27.90;;;;;;2239754;61;20889;-71
2022/11/08 08:55:26;0.00;0.00;0.62;0.00;0.00;0.62;3.67;1.90;;;24.40;27.90;;;;;;2240391;61;20428;-73
2022/11/08 08:58:11;0.00;0.00;0.62;0.00;0.00;0.62;3.40;1.80;;;24.50;27.90;;;;;;2238876;61;20390;-74
2022/11/08 09:01:00;0.00;0.00;0.62;0.00;0.00;0.62;2.10;1.50;;;24.50;27.90;;;;;;2239845;61;20453;-72
2022/11/08 09:03:46;0.00;0.00;0.62;0.00;0.00;0.62;3.20;1.70;;;24.60;27.90;;;;;;2240259;61;20374;-73
2022/11/08 09:06:31;0.00;0.00;0.62;0.00;0.00;0.62;2.13;1.60;;;24.60;27.90;;;;;;2239245;61;20382;-73
2022/11/08 09:09:16;0.00;0.00;0.62;0.00;0.00;0.62;3.10;1.80;;;24.60;27.80;;;;;;2240244;61;20400;-72
2022/11/08 09:12:02;0.00;0.00;0.62;0.00;0.00;0.62;3.13;1.70;;;24.70;27.90;;;;;;2239298;61;20541;-71
2022/11/08 09:14:47;0.00;0.00;0.62;0.00;0.00;0.62;2.43;1.40;;;24.70;27.80;;;;;;2239703;61;20437;-72
2022/11/08 09:17:32;0.00;0.00;0.62;0.00;0.00;0.62;3.00;1.90;;;24.70;27.80;;;;;;2240265;61;20866;-71
2022/11/08 09:20:18;0.00;0.00;0.62;0.00;0.00;0.62;4.23;2.33;;;24.80;27.90;;;;;;2239150;61;20410;-64
2022/11/08 09:23:03;0.00;0.00;0.62;0.00;0.00;0.62;2.00;1.50;;;24.80;27.90;;;;;;2240159;61;20448;-71
2022/11/08 09:25:48;0.00;0.00;0.62;0.00;0.00;0.62;2.23;1.67;;;24.90;27.90;;;;;;2239796;61;20405;-64
2022/11/08 09:28:34;0.00;0.00;0.62;0.00;0.00;0.62;2.20;1.53;;;24.90;27.80;;;;;;2239069;61;20445;-71
2022/11/08 09:31:19;0.00;0.00;0.62;0.00;0.00;0.62;2.93;1.90;;;24.90;27.80;;;;;;2240139;61;20389;-68
2022/11/08 09:34:04;0.00;0.00;0.62;0.00;0.00;0.62;2.50;1.93;;;24.90;27.80;;;;;;2240027;61;20412;-65
2022/11/08 09:36:50;0.00;0.00;0.62;0.00;0.00;0.62;2.93;2.30;;;25.00;27.80;;;;;;2239566;61;20498;-70
2022/11/08 09:39:35;0.00;0.00;0.62;0.00;0.00;0.62;2.30;1.80;;;25.00;27.80;;;;;;2240417;61;20877;-69
2022/11/08 09:42:49;0.00;0.00;0.62;0.00;0.00;0.62;2.57;2.03;;;25.00;27.80;;;;;;2239112;61;20482;-70
2022/11/08 09:45:40;0.00;0.00;0.62;0.00;0.00;0.62;3.40;1.70;;;25.10;27.90;;;;;;2240935;61;20362;-74
2022/11/08 09:48:29;0.00;0.00;0.62;0.00;0.00;0.62;2.23;1.80;;;25.10;27.80;;;;;;2241030;61;20397;-68
2022/11/08 09:51:19;0.00;0.00;0.62;0.00;0.00;0.62;2.27;1.73;;;25.10;27.80;;;;;;2240116;61;20389;-69
2022/11/08 09:54:09;0.00;0.00;0.62;0.00;0.00;0.62;2.50;1.60;;;25.20;27.80;;;;;;2241050;61;20413;-71
2022/11/08 09:56:56;0.00;0.00;0.62;0.00;0.00;0.62;3.30;2.00;;;25.20;27.80;;;;;;2240140;61;20412;-67
2022/11/08 09:59:46;0.00;0.00;0.62;0.00;0.00;0.62;2.43;1.80;;;25.20;27.80;;;;;;2240791;61;20365;-72
2022/11/08 10:02:33;0.00;0.00;0.62;0.00;0.00;0.62;2.27;1.57;;;25.20;27.80;;;;;;2240904;61;20389;-69
2022/11/08 10:05:19;0.00;0.00;0.62;0.00;0.00;0.62;2.63;1.80;;;25.30;27.90;;;;;;2239504;61;20361;-72
2022/11/08 10:08:15;0.00;0.00;0.62;0.00;0.00;0.62;2.70;2.03;;;25.30;27.80;;;;;;2241010;61;20369;-68
2022/11/08 10:11:26;0.00;0.00;0.62;0.00;0.00;0.62;2.60;1.40;;;25.30;27.80;;;;;;2240151;61;20369;-71
2022/11/08 10:14:35;0.00;0.00;0.62;0.00;0.00;0.62;2.00;1.40;;;25.40;27.90;;;;;;2240610;61;20458;-67
2022/11/08 10:17:52;0.00;0.00;0.62;0.00;0.00;0.62;2.80;2.10;;;25.40;27.90;;;;;;2240694;61;20518;-72
2022/11/08 10:20:51;0.00;0.00;0.62;0.00;0.00;0.62;2.10;1.73;;;25.50;27.90;;;;;;2239626;61;20962;-71
2022/11/08 10:23:43;0.00;0.00;0.62;0.00;0.00;0.62;2.43;1.83;;;25.50;27.90;;;;;;2240382;61;20365;-69
2022/11/08 10:26:35;0.00;0.00;0.62;0.00;0.00;0.62;2.00;1.50;;;25.60;28.00;;;;;;2239743;61;20399;-71
2022/11/08 10:29:25;0.00;0.00;0.62;0.00;0.00;0.62;2.47;1.80;;;25.60;27.90;;;;;;2240761;61;20898;-74
2022/11/08 10:32:20;0.00;0.00;0.62;0.00;0.00;0.62;2.60;1.60;;;25.60;27.90;;;;;;2240711;61;20389;-72
2022/11/08 10:35:18;0.00;0.00;0.62;0.00;0.00;0.62;2.43;1.90;;;25.70;28.00;;;;;;2239649;61;20440;-66
2022/11/08 10:38:16;0.00;0.00;0.62;0.00;0.00;0.62;2.43;1.63;;;25.70;27.90;;;;;;2240956;61;20373;-66
2022/11/08 10:41:18;0.00;0.00;0.62;0.00;0.00;0.62;2.90;2.00;;;25.70;27.90;;;;;;2239535;61;20368;-69
2022/11/08 10:44:10;0.00;0.00;0.62;0.00;0.00;0.62;2.63;1.37;;;25.80;27.90;;;;;;2240750;61;20385;-71
2022/11/08 10:46:59;0.00;0.00;0.62;0.00;0.00;0.62;2.47;1.80;;;25.80;27.90;;;;;;2240653;61;20905;-70
2022/11/08 10:49:44;0.00;0.00;0.62;0.00;0.00;0.62;3.00;2.00;;;25.90;28.00;;;;;;2239767;61;20451;-72
2022/11/08 10:52:37;0.00;0.00;0.62;0.00;0.00;0.62;2.37;1.70;;;25.90;27.90;;;;;;2240689;61;20389;-69
2022/11/08 10:55:27;0.00;0.00;0.62;0.00;0.00;0.62;3.10;1.93;;;25.90;27.90;;;;;;2240148;61;20886;-63
2022/11/08 10:58:30;0.00;0.00;0.62;0.00;0.00;0.62;2.20;1.50;;;26.00;27.90;;;;;;2240347;61;20373;-64
2022/11/08 11:01:19;0.00;0.00;0.62;0.00;0.00;0.62;2.13;1.60;;;26.00;27.80;;;;;;2240393;61;20381;-70
2022/11/08 11:04:25;0.00;0.00;0.62;0.00;0.00;0.62;2.50;1.70;;;26.10;27.80;;;;;;2239625;61;20845;-69
2022/11/08 11:07:29;0.00;0.00;0.62;0.00;0.00;0.62;2.50;1.90;;;26.10;27.80;;;;;;2240279;61;20762;-71
2022/11/08 11:10:23;0.00;0.00;0.62;0.00;0.00;0.62;2.07;1.47;;;26.10;27.80;;;;;;2240319;61;20397;-66
2022/11/08 11:13:12;0.00;0.00;0.62;0.00;0.00;0.62;1.77;1.20;;;26.20;27.80;;;;;;2240403;61;20441;-70
2022/11/08 11:16:02;0.00;0.00;0.62;0.00;0.00;0.62;2.43;1.97;;;26.20;27.80;;;;;;2240529;61;20910;-70
2022/11/08 11:18:52;0.00;0.00;0.62;0.00;0.00;0.62;2.30;1.30;;;26.20;27.70;;;;;;2239772;61;20458;-68